Time;durP1;ratioP1;P1;durP2;ratioP2;P2;SDS_P1;SDS_P2;PMS_P1;PMS_P2;Temp;Humidity;BMP_temperature;BMP_pressure;BME280_temperature;BME280_humidity;BME280_pressure;Samples;Min_cycle;Max_cycle;Signal;HPM_P1;HPM_P2
2022/03/12 00:02:00;;;;;;;2.65;2.30;;;;;;;;;;5068133;28;20040;-72
2022/03/12 00:04:30;;;;;;;2.65;2.00;;;;;;;;;;5067941;28;20040;-72
2022/03/12 00:06:58;;;;;;;2.78;2.58;;;;;;;;;;5068441;28;20048;-72
2022/03/12 00:09:26;;;;;;;2.25;2.03;;;;;;;;;;5068179;28;20131;-72
2022/03/12 00:12:00;;;;;;;2.72;2.53;;;;;;;;;;5068296;28;20055;-73
2022/03/12 00:14:30;;;;;;;2.42;2.22;;;;;;;;;;5067496;28;20040;-72
2022/03/12 00:16:58;;;;;;;3.50;2.50;;;;;;;;;;5068034;28;20080;-72
2022/03/12 00:19:27;;;;;;;3.53;2.72;;;;;;;;;;5067825;28;20048;-72
2022/03/12 00:21:55;;;;;;;2.67;2.47;;;;;;;;;;5050341;28;20116;-73
2022/03/12 00:24:25;;;;;;;3.60;2.55;;;;;;;;;;5049858;28;20060;-72
2022/03/12 00:26:52;;;;;;;2.65;2.45;;;;;;;;;;5050119;28;20123;-72
2022/03/12 00:29:20;;;;;;;2.83;2.63;;;;;;;;;;5033975;28;20059;-72
2022/03/12 00:31:50;;;;;;;5.07;2.70;;;;;;;;;;5033665;28;20124;-72
2022/03/12 00:34:18;;;;;;;4.70;2.58;;;;;;;;;;5053415;28;20047;-72
2022/03/12 00:36:48;;;;;;;2.22;2.03;;;;;;;;;;5070748;28;20048;-72
2022/03/12 00:39:16;;;;;;;3.15;2.85;;;;;;;;;;5074583;28;20040;-72
2022/03/12 00:41:43;;;;;;;2.92;2.33;;;;;;;;;;5061700;28;20041;-72
2022/03/12 00:44:12;;;;;;;3.05;2.63;;;;;;;;;;5057492;28;20041;-72
2022/03/12 00:46:40;;;;;;;5.03;2.75;;;;;;;;;;5075462;28;20051;-72
2022/03/12 00:49:07;;;;;;;3.65;3.00;;;;;;;;;;5060327;28;20048;-73
2022/03/12 00:51:35;;;;;;;3.50;2.85;;;;;;;;;;5053882;28;20570;-72
2022/03/12 00:54:03;;;;;;;3.80;2.72;;;;;;;;;;5068417;28;20060;-72
2022/03/12 00:56:31;;;;;;;4.20;2.83;;;;;;;;;;5067767;28;20043;-72
2022/03/12 00:58:59;;;;;;;2.83;2.53;;;;;;;;;;5067908;28;20065;-72
2022/03/12 01:01:26;;;;;;;3.10;2.80;;;;;;;;;;5068091;28;20040;-72
2022/03/12 01:03:56;;;;;;;2.95;2.63;;;;;;;;;;5049987;28;20049;-72
2022/03/12 01:06:24;;;;;;;3.50;2.90;;;;;;;;;;5066753;28;20727;-72
2022/03/12 01:08:51;;;;;;;3.03;2.70;;;;;;;;;;5067085;28;20044;-72
2022/03/12 01:11:20;;;;;;;2.80;2.50;;;;;;;;;;5066945;28;20049;-72
2022/03/12 01:13:47;;;;;;;3.15;2.50;;;;;;;;;;5044739;28;20141;-74
2022/03/12 01:16:15;;;;;;;5.57;2.75;;;;;;;;;;5045603;28;20044;-72
2022/03/12 01:18:42;;;;;;;3.55;2.75;;;;;;;;;;5047349;28;20515;-72
2022/03/12 01:21:11;;;;;;;2.85;2.30;;;;;;;;;;5033101;28;20060;-72
2022/03/12 01:23:39;;;;;;;2.70;2.28;;;;;;;;;;5033597;28;20041;-72
2022/03/12 01:26:07;;;;;;;2.80;2.50;;;;;;;;;;5047870;28;20044;-72
2022/03/12 01:28:36;;;;;;;3.03;2.33;;;;;;;;;;5071269;28;20040;-72
2022/03/12 01:31:04;;;;;;;4.30;2.38;;;;;;;;;;5050056;28;20069;-71
2022/03/12 01:33:32;;;;;;;2.83;2.60;;;;;;;;;;5052536;28;20040;-71
2022/03/12 01:35:59;;;;;;;3.35;2.50;;;;;;;;;;5070676;28;20047;-72
2022/03/12 01:38:34;;;;;;;3.05;2.35;;;;;;;;;;5071071;28;20044;-72
2022/03/12 01:41:06;;;;;;;2.70;2.50;;;;;;;;;;5070959;28;20093;-72
2022/03/12 01:43:37;;;;;;;3.80;2.30;;;;;;;;;;5071372;28;20119;-72
2022/03/12 01:46:10;;;;;;;2.92;2.38;;;;;;;;;;5051740;28;20037;-72
2022/03/12 01:48:42;;;;;;;2.85;2.20;;;;;;;;;;5050096;28;20080;-72
2022/03/12 01:51:09;;;;;;;2.40;2.20;;;;;;;;;;5053365;28;20157;-72
2022/03/12 01:53:36;;;;;;;3.63;2.33;;;;;;;;;;5050214;28;20081;-72
2022/03/12 01:56:04;;;;;;;2.70;2.47;;;;;;;;;;5032000;28;20390;-72
2022/03/12 01:58:35;;;;;;;2.53;2.30;;;;;;;;;;5050489;28;20047;-72
2022/03/12 02:01:03;;;;;;;2.25;1.85;;;;;;;;;;5033194;28;20033;-73
2022/03/12 02:03:32;;;;;;;2.70;2.38;;;;;;;;;;5050787;28;20502;-72
2022/03/12 02:06:00;;;;;;;2.25;2.05;;;;;;;;;;5015962;28;20055;-72
2022/03/12 02:08:28;;;;;;;3.15;2.50;;;;;;;;;;5053115;28;20056;-72
2022/03/12 02:10:59;;;;;;;2.40;2.20;;;;;;;;;;5050926;28;20051;-72
2022/03/12 02:13:29;;;;;;;2.65;2.25;;;;;;;;;;5069681;28;20128;-72
2022/03/12 02:16:06;;;;;;;3.63;2.58;;;;;;;;;;5069550;28;20052;-72
2022/03/12 02:18:34;;;;;;;4.03;3.00;;;;;;;;;;5070212;28;20037;-72
2022/03/12 02:21:01;;;;;;;2.70;2.47;;;;;;;;;;5070716;28;20037;-72
2022/03/12 02:23:28;;;;;;;2.38;2.17;;;;;;;;;;5070184;28;20036;-72
2022/03/12 02:26:01;;;;;;;2.50;2.30;;;;;;;;;;5069154;28;20521;-72
2022/03/12 02:28:29;;;;;;;5.60;2.92;;;;;;;;;;5070100;28;20044;-72
2022/03/12 02:30:57;;;;;;;3.30;2.92;;;;;;;;;;5069221;28;20052;-72
2022/03/12 02:33:28;;;;;;;3.63;2.47;;;;;;;;;;5070217;28;20055;-72
2022/03/12 02:35:56;;;;;;;2.95;2.65;;;;;;;;;;5068118;28;20044;-72
2022/03/12 02:38:27;;;;;;;2.60;2.40;;;;;;;;;;5069012;28;20135;-72
2022/03/12 02:41:10;;;;;;;4.55;3.13;;;;;;;;;;5070128;28;20068;-72
2022/03/12 02:43:43;;;;;;;11.27;5.22;;;;;;;;;;5069758;28;20086;-72
2022/03/12 02:46:13;;;;;;;13.52;6.07;;;;;;;;;;5068746;28;20090;-72
2022/03/12 02:48:42;;;;;;;15.40;6.63;;;;;;;;;;5068699;28;20051;-72
2022/03/12 02:51:10;;;;;;;14.27;5.80;;;;;;;;;;5069601;28;20062;-71
2022/03/12 02:53:38;;;;;;;17.02;6.70;;;;;;;;;;5051653;28;20048;-72
2022/03/12 02:56:05;;;;;;;17.00;7.60;;;;;;;;;;5068662;28;20136;-72
2022/03/12 02:58:33;;;;;;;27.80;10.52;;;;;;;;;;5069429;28;20045;-72
2022/03/12 03:01:04;;;;;;;29.42;10.20;;;;;;;;;;5051586;28;20140;-72
2022/03/12 03:03:34;;;;;;;25.70;9.57;;;;;;;;;;5068610;28;20497;-71
2022/03/12 03:06:02;;;;;;;23.23;10.02;;;;;;;;;;5068199;28;20045;-71
2022/03/12 03:08:29;;;;;;;25.10;9.73;;;;;;;;;;5069459;28;20643;-71
2022/03/12 03:10:58;;;;;;;31.67;11.85;;;;;;;;;;5069251;28;20044;-71
2022/03/12 03:13:54;;;;;;;25.45;10.65;;;;;;;;;;5051408;28;20127;-72
2022/03/12 03:16:21;;;;;;;29.23;10.38;;;;;;;;;;5031718;28;20147;-72
2022/03/12 03:18:52;;;;;;;19.67;7.93;;;;;;;;;;5051465;28;20045;-72
2022/03/12 03:21:20;;;;;;;19.27;7.93;;;;;;;;;;5068475;28;20037;-72
2022/03/12 03:23:48;;;;;;;32.13;11.55;;;;;;;;;;5049966;28;20045;-73
2022/03/12 03:26:19;;;;;;;34.20;13.30;;;;;;;;;;5066634;28;20070;-72
2022/03/12 03:28:47;;;;;;;39.88;14.30;;;;;;;;;;5069754;28;20049;-72
2022/03/12 03:31:16;;;;;;;38.15;14.32;;;;;;;;;;5069955;28;20048;-73
2022/03/12 03:33:43;;;;;;;38.95;15.88;;;;;;;;;;5069270;28;20049;-72
2022/03/12 03:36:11;;;;;;;38.28;13.70;;;;;;;;;;5067122;28;20044;-74
2022/03/12 03:38:38;;;;;;;35.65;12.63;;;;;;;;;;5068665;28;20033;-72
2022/03/12 03:41:06;;;;;;;34.85;12.25;;;;;;;;;;5067222;28;20110;-71
2022/03/12 03:43:33;;;;;;;34.35;12.88;;;;;;;;;;5068336;28;20051;-72
2022/03/12 03:46:01;;;;;;;35.38;12.05;;;;;;;;;;5068016;28;20678;-72
2022/03/12 03:48:31;;;;;;;33.53;12.90;;;;;;;;;;5132745;22;20044;-77
2022/03/12 03:50:58;;;;;;;27.60;10.68;;;;;;;;;;5082093;28;20050;-77
2022/03/12 03:53:26;;;;;;;30.38;12.15;;;;;;;;;;5090571;28;20044;-78
2022/03/12 03:55:55;;;;;;;34.05;12.30;;;;;;;;;;5090573;28;20113;-78
2022/03/12 03:58:24;;;;;;;27.38;9.52;;;;;;;;;;5090859;28;20044;-79
2022/03/12 04:00:57;;;;;;;;;;;;;;;;;;5073652;28;20044;-77
2022/03/12 04:03:25;;;;;;;23.30;9.57;;;;;;;;;;5090534;28;19928;-78
2022/03/12 04:05:52;;;;;;;28.98;10.82;;;;;;;;;;5090191;28;20044;-78
2022/03/12 04:08:21;;;;;;;20.42;8.82;;;;;;;;;;5090649;28;20039;-78
2022/03/12 04:10:48;;;;;;;18.75;7.95;;;;;;;;;;5090649;28;20447;-78
2022/03/12 04:13:17;;;;;;;21.50;8.55;;;;;;;;;;5090274;28;20055;-78
2022/03/12 04:15:44;;;;;;;19.83;9.27;;;;;;;;;;5072143;28;20040;-79
2022/03/12 04:18:15;;;;;;;19.60;9.00;;;;;;;;;;5090148;28;20040;-78
2022/03/12 04:20:46;;;;;;;17.23;7.78;;;;;;;;;;5072502;28;20044;-78
2022/03/12 04:23:21;;;;;;;18.25;7.70;;;;;;;;;;5072575;28;20493;-78
2022/03/12 04:25:48;;;;;;;13.75;6.47;;;;;;;;;;5089878;28;20126;-78
2022/03/12 04:28:16;;;;;;;14.32;6.78;;;;;;;;;;5090259;28;20051;-78
2022/03/12 04:30:44;;;;;;;10.45;5.50;;;;;;;;;;5071879;28;20048;-78
2022/03/12 04:33:14;;;;;;;16.02;6.97;;;;;;;;;;5071899;28;20052;-78
2022/03/12 04:35:42;;;;;;;10.48;5.55;;;;;;;;;;5089617;28;20051;-77
2022/03/12 04:38:10;;;;;;;12.32;6.85;;;;;;;;;;5090071;28;20497;-78
2022/03/12 04:40:40;;;;;;;9.57;5.38;;;;;;;;;;5089587;28;20047;-78
2022/03/12 04:43:11;;;;;;;10.43;4.93;;;;;;;;;;5071592;28;20575;-77
2022/03/12 04:45:40;;;;;;;11.85;5.93;;;;;;;;;;5071454;28;20056;-77
2022/03/12 04:48:10;;;;;;;9.32;4.93;;;;;;;;;;5089816;28;20075;-78
2022/03/12 04:50:37;;;;;;;9.15;5.35;;;;;;;;;;5055032;28;20488;-79
2022/03/12 04:53:05;;;;;;;10.43;4.85;;;;;;;;;;5072180;28;20066;-80
2022/03/12 04:55:32;;;;;;;9.80;5.40;;;;;;;;;;5074283;28;20497;-79
2022/03/12 04:58:00;;;;;;;10.73;6.40;;;;;;;;;;5059316;28;20044;-79
2022/03/12 05:00:30;;;;;;;12.55;6.32;;;;;;;;;;5093935;28;20050;-78
2022/03/12 05:03:03;;;;;;;12.32;6.65;;;;;;;;;;5093928;28;20086;-79
2022/03/12 05:05:36;;;;;;;11.80;5.43;;;;;;;;;;5091887;28;20043;-78
2022/03/12 05:08:14;;;;;;;10.15;6.10;;;;;;;;;;5093955;28;20478;-78
2022/03/12 05:10:49;;;;;;;6.63;5.15;;;;;;;;;;5093738;28;20044;-79
2022/03/12 05:13:27;;;;;;;7.97;4.68;;;;;;;;;;5076991;28;20055;-79
2022/03/12 05:15:58;;;;;;;8.95;5.95;;;;;;;;;;5093080;28;20075;-78
2022/03/12 05:18:26;;;;;;;8.07;4.80;;;;;;;;;;5075628;28;20043;-78
2022/03/12 05:20:54;;;;;;;5.68;4.35;;;;;;;;;;5075336;28;20040;-78
2022/03/12 05:23:23;;;;;;;6.15;4.18;;;;;;;;;;5063763;28;20485;-79
2022/03/12 05:25:52;;;;;;;6.13;4.00;;;;;;;;;;5038641;28;20144;-78
2022/03/12 05:28:22;;;;;;;5.68;4.00;;;;;;;;;;5073132;28;20040;-78
2022/03/12 05:30:50;;;;;;;4.15;3.10;;;;;;;;;;5064163;28;20041;-79
2022/03/12 05:33:19;;;;;;;5.07;3.22;;;;;;;;;;5053159;28;20052;-78
2022/03/12 05:35:47;;;;;;;5.10;3.13;;;;;;;;;;5035070;28;20057;-79
2022/03/12 05:38:14;;;;;;;5.75;3.25;;;;;;;;;;5052969;28;20037;-78
2022/03/12 05:40:45;;;;;;;5.75;3.90;;;;;;;;;;5052348;28;20391;-79
2022/03/12 05:43:14;;;;;;;8.70;4.45;;;;;;;;;;5034914;28;20061;-78
2022/03/12 05:45:46;;;;;;;6.55;4.57;;;;;;;;;;5052499;28;20044;-79
2022/03/12 05:48:14;;;;;;;7.40;4.07;;;;;;;;;;5034908;28;20041;-78
2022/03/12 05:50:45;;;;;;;5.80;3.88;;;;;;;;;;5034614;28;20057;-78
2022/03/12 05:53:14;;;;;;;5.43;3.40;;;;;;;;;;5052741;28;20041;-78
2022/03/12 05:55:41;;;;;;;5.63;4.03;;;;;;;;;;5052240;28;20037;-77
2022/03/12 05:58:10;;;;;;;5.25;3.00;;;;;;;;;;5052735;28;20128;-78
2022/03/12 06:00:39;;;;;;;4.38;3.78;;;;;;;;;;5052236;28;20045;-77
2022/03/12 06:03:10;;;;;;;4.55;3.15;;;;;;;;;;5034721;28;20641;-78
2022/03/12 06:05:41;;;;;;;4.13;2.80;;;;;;;;;;5051973;28;20049;-78
2022/03/12 06:08:09;;;;;;;5.18;3.42;;;;;;;;;;5052610;28;20041;-78
2022/03/12 06:10:37;;;;;;;4.63;3.08;;;;;;;;;;5034595;28;20037;-78
2022/03/12 06:13:12;;;;;;;4.20;3.20;;;;;;;;;;5052555;28;20095;-78
2022/03/12 06:15:40;;;;;;;4.47;3.05;;;;;;;;;;5034367;28;20060;-77
2022/03/12 06:18:11;;;;;;;4.28;3.35;;;;;;;;;;5052051;28;20037;-78
2022/03/12 06:20:38;;;;;;;4.53;3.50;;;;;;;;;;5017983;28;20041;-78
2022/03/12 06:23:06;;;;;;;6.05;3.45;;;;;;;;;;5034595;28;20052;-79
2022/03/12 06:25:34;;;;;;;3.75;3.40;;;;;;;;;;5051715;28;20068;-78
2022/03/12 06:28:03;;;;;;;4.65;3.70;;;;;;;;;;5034499;28;20049;-78
2022/03/12 06:30:30;;;;;;;5.72;4.80;;;;;;;;;;5052072;28;20083;-78
2022/03/12 06:32:58;;;;;;;7.47;5.53;;;;;;;;;;5056998;28;20045;-78
2022/03/12 06:35:26;;;;;;;6.13;5.20;;;;;;;;;;5059954;28;20119;-77
2022/03/12 06:37:56;;;;;;;6.85;4.45;;;;;;;;;;5057221;28;20112;-78
2022/03/12 06:40:28;;;;;;;7.72;5.35;;;;;;;;;;5051227;28;20116;-77
2022/03/12 06:42:59;;;;;;;10.07;6.93;;;;;;;;;;5052390;28;20082;-78
2022/03/12 06:45:28;;;;;;;13.07;8.02;;;;;;;;;;5058206;28;20516;-77
2022/03/12 06:47:56;;;;;;;18.15;11.43;;;;;;;;;;5060738;28;20063;-77
2022/03/12 06:50:24;;;;;;;17.77;9.13;;;;;;;;;;5045270;28;20091;-79
2022/03/12 06:52:52;;;;;;;14.90;11.18;;;;;;;;;;5061523;28;20053;-77
2022/03/12 06:55:21;;;;;;;17.95;10.18;;;;;;;;;;5070246;28;20045;-78
2022/03/12 06:57:51;;;;;;;15.93;10.25;;;;;;;;;;5067231;28;20560;-77
2022/03/12 07:00:22;;;;;;;12.43;7.90;;;;;;;;;;5069282;28;20120;-78
2022/03/12 07:02:49;;;;;;;12.30;8.63;;;;;;;;;;5062037;28;20037;-77
2022/03/12 07:05:17;;;;;;;11.40;8.70;;;;;;;;;;5060744;28;20068;-77
2022/03/12 07:07:46;;;;;;;19.00;11.27;;;;;;;;;;5059782;28;20075;-78
2022/03/12 07:10:14;;;;;;;5.47;4.00;;;;;;;;;;5065405;28;20048;-77
2022/03/12 07:12:45;;;;;;;5.63;3.70;;;;;;;;;;5059407;28;20095;-77
2022/03/12 07:15:13;;;;;;;6.68;4.03;;;;;;;;;;5052607;28;20463;-77
2022/03/12 07:17:42;;;;;;;3.50;3.20;;;;;;;;;;5062046;28;20041;-77
2022/03/12 07:20:12;;;;;;;4.63;3.85;;;;;;;;;;5062650;28;20037;-77
2022/03/12 07:22:40;;;;;;;7.78;4.28;;;;;;;;;;5060222;28;20048;-77
2022/03/12 07:25:11;;;;;;;7.07;4.20;;;;;;;;;;5063553;28;20110;-77
2022/03/12 07:27:38;;;;;;;3.60;3.30;;;;;;;;;;5061476;28;20047;-77
2022/03/12 07:30:07;;;;;;;4.47;3.30;;;;;;;;;;5058742;28;20457;-77
2022/03/12 07:32:35;;;;;;;6.88;4.00;;;;;;;;;;5055838;28;20041;-77
2022/03/12 07:35:03;;;;;;;8.25;3.90;;;;;;;;;;5058248;28;20055;-77
2022/03/12 07:37:30;;;;;;;3.85;3.45;;;;;;;;;;5058838;28;20049;-77
2022/03/12 07:39:58;;;;;;;5.55;3.70;;;;;;;;;;5050824;28;20041;-77
2022/03/12 07:42:25;;;;;;;6.78;3.67;;;;;;;;;;5051139;28;20040;-77
2022/03/12 07:44:53;;;;;;;6.00;3.65;;;;;;;;;;5050390;28;20048;-77
2022/03/12 07:47:20;;;;;;;4.40;3.88;;;;;;;;;;5033190;28;20044;-77
2022/03/12 07:49:48;;;;;;;5.72;4.03;;;;;;;;;;5058363;28;20523;-77
2022/03/12 07:52:15;;;;;;;3.85;3.10;;;;;;;;;;5061123;28;20127;-77
2022/03/12 07:54:43;;;;;;;4.70;3.95;;;;;;;;;;5050346;28;20150;-77
2022/03/12 07:57:10;;;;;;;5.97;3.97;;;;;;;;;;5042482;28;20041;-77
2022/03/12 07:59:38;;;;;;;5.88;4.15;;;;;;;;;;5038848;28;20053;-77
2022/03/12 08:02:06;;;;;;;5.35;4.45;;;;;;;;;;5061493;28;20037;-77
2022/03/12 08:04:35;;;;;;;5.93;4.30;;;;;;;;;;5058566;28;20140;-76
2022/03/12 08:07:03;;;;;;;7.15;5.05;;;;;;;;;;5059819;28;20037;-77
2022/03/12 08:09:32;;;;;;;6.32;4.80;;;;;;;;;;5060505;28;20051;-77
2022/03/12 08:12:00;;;;;;;6.90;4.60;;;;;;;;;;5058185;28;20037;-77
2022/03/12 08:14:27;;;;;;;5.95;4.50;;;;;;;;;;5058725;28;20049;-77
2022/03/12 08:16:55;;;;;;;4.97;4.07;;;;;;;;;;5049715;28;20096;-76
2022/03/12 08:19:24;;;;;;;5.35;4.85;;;;;;;;;;5059168;28;20194;-77
2022/03/12 08:21:52;;;;;;;7.60;4.30;;;;;;;;;;5049944;28;20052;-77
2022/03/12 08:24:21;;;;;;;10.95;6.38;;;;;;;;;;5056106;28;20036;-77
2022/03/12 08:26:49;;;;;;;5.35;4.70;;;;;;;;;;5042502;28;20047;-77
2022/03/12 08:29:21;;;;;;;5.53;3.97;;;;;;;;;;5058486;28;20048;-76
2022/03/12 08:31:49;;;;;;;;;;;;;;;;;;5059041;28;20045;-77
2022/03/12 08:34:18;;;;;;;4.78;4.22;;;;;;;;;;5057198;28;19920;-77
2022/03/12 08:36:45;;;;;;;7.43;4.82;;;;;;;;;;5057545;28;20040;-77
2022/03/12 08:39:14;;;;;;;5.40;3.70;;;;;;;;;;5055300;28;20037;-76
2022/03/12 08:41:42;;;;;;;6.55;5.10;;;;;;;;;;5055418;28;20815;-77
2022/03/12 08:44:10;;;;;;;6.25;4.32;;;;;;;;;;5059000;28;20102;-77
2022/03/12 08:46:38;;;;;;;6.88;3.88;;;;;;;;;;5045043;28;20071;-77
2022/03/12 08:49:06;;;;;;;5.15;4.22;;;;;;;;;;5058210;28;20128;-77
2022/03/12 08:51:33;;;;;;;4.45;3.80;;;;;;;;;;5058811;28;20041;-78
2022/03/12 08:54:02;;;;;;;6.40;4.00;;;;;;;;;;5060388;28;20037;-77
2022/03/12 08:56:29;;;;;;;4.07;3.20;;;;;;;;;;5059286;28;20037;-77
2022/03/12 08:58:57;;;;;;;8.23;3.85;;;;;;;;;;5048824;28;20037;-77
2022/03/12 09:01:25;;;;;;;4.25;3.17;;;;;;;;;;5048969;28;20044;-77
2022/03/12 09:03:54;;;;;;;5.28;3.20;;;;;;;;;;5060977;28;20485;-76
2022/03/12 09:06:23;;;;;;;4.07;3.28;;;;;;;;;;5058063;28;20065;-77
2022/03/12 09:08:51;;;;;;;3.10;2.35;;;;;;;;;;5053984;28;20037;-76
2022/03/12 09:11:18;;;;;;;2.90;2.67;;;;;;;;;;5055795;28;20417;-77
2022/03/12 09:13:47;;;;;;;3.65;2.78;;;;;;;;;;5050340;28;20046;-77
2022/03/12 09:16:15;;;;;;;2.80;2.60;;;;;;;;;;5049184;28;20041;-77
2022/03/12 09:18:44;;;;;;;3.28;2.85;;;;;;;;;;5049441;28;20688;-77
2022/03/12 09:21:11;;;;;;;3.05;2.85;;;;;;;;;;5049707;28;20040;-77
2022/03/12 09:23:39;;;;;;;2.92;2.63;;;;;;;;;;5056040;28;20051;-80
2022/03/12 09:26:06;;;;;;;4.15;2.80;;;;;;;;;;5050427;28;20067;-77
2022/03/12 09:28:33;;;;;;;3.40;2.65;;;;;;;;;;5054390;28;20033;-76
2022/03/12 09:31:04;;;;;;;4.45;2.92;;;;;;;;;;5052807;28;20067;-78
2022/03/12 09:33:31;;;;;;;3.33;2.60;;;;;;;;;;5070918;28;20040;-77
2022/03/12 09:35:59;;;;;;;2.40;2.20;;;;;;;;;;5068353;28;20045;-77
2022/03/12 09:38:27;;;;;;;2.72;2.35;;;;;;;;;;5057466;28;20041;-77
2022/03/12 09:40:54;;;;;;;2.80;2.60;;;;;;;;;;5051505;28;20740;-79
2022/03/12 09:43:22;;;;;;;2.85;2.65;;;;;;;;;;5037672;28;20044;-78
2022/03/12 09:45:50;;;;;;;6.38;3.10;;;;;;;;;;5052433;28;20076;-76
2022/03/12 09:48:19;;;;;;;2.83;2.63;;;;;;;;;;5052610;28;20045;-77
2022/03/12 09:50:47;;;;;;;3.10;2.90;;;;;;;;;;5053014;28;20041;-76
2022/03/12 09:53:14;;;;;;;5.50;2.55;;;;;;;;;;5055857;28;20418;-76
2022/03/12 09:55:42;;;;;;;2.30;2.10;;;;;;;;;;5057900;28;20420;-76
2022/03/12 09:58:10;;;;;;;3.85;2.63;;;;;;;;;;5072701;28;20045;-76
2022/03/12 10:00:37;;;;;;;5.05;2.70;;;;;;;;;;5058825;28;20132;-77
2022/03/12 10:03:05;;;;;;;4.15;2.45;;;;;;;;;;5075900;28;20099;-76
2022/03/12 10:05:34;;;;;;;3.08;2.47;;;;;;;;;;5082255;28;20045;-77
2022/03/12 10:08:02;;;;;;;2.03;1.92;;;;;;;;;;5081983;28;20037;-77
2022/03/12 10:10:30;;;;;;;2.70;2.50;;;;;;;;;;5070323;28;20072;-76
2022/03/12 10:12:58;;;;;;;3.72;2.40;;;;;;;;;;5038344;28;20422;-77
2022/03/12 10:15:25;;;;;;;5.50;2.30;;;;;;;;;;5072087;28;20090;-77
2022/03/12 10:17:53;;;;;;;3.28;2.40;;;;;;;;;;5072363;28;20048;-78
2022/03/12 10:20:24;;;;;;;3.65;2.45;;;;;;;;;;5072186;28;20045;-77
2022/03/12 10:22:54;;;;;;;3.10;2.80;;;;;;;;;;5054730;28;20048;-77
2022/03/12 10:25:24;;;;;;;2.33;2.17;;;;;;;;;;5038074;28;20122;-76
2022/03/12 10:27:52;;;;;;;3.97;2.15;;;;;;;;;;5070835;28;20044;-78
2022/03/12 10:30:19;;;;;;;4.15;2.85;;;;;;;;;;5059313;28;20057;-77
2022/03/12 10:32:48;;;;;;;3.05;2.75;;;;;;;;;;5072912;28;20056;-78
2022/03/12 10:35:18;;;;;;;3.03;2.70;;;;;;;;;;5072081;28;20060;-78
2022/03/12 10:37:47;;;;;;;2.75;2.20;;;;;;;;;;5072374;28;20036;-77
2022/03/12 10:40:19;;;;;;;3.47;2.67;;;;;;;;;;5064300;28;20049;-77
2022/03/12 10:42:47;;;;;;;2.55;2.35;;;;;;;;;;5051529;28;20068;-78
2022/03/12 10:45:18;;;;;;;3.50;3.20;;;;;;;;;;5051838;28;20052;-77
2022/03/12 10:47:59;;;;;;;2.92;2.35;;;;;;;;;;5052005;28;20044;-77
2022/03/12 10:50:28;;;;;;;6.80;2.90;;;;;;;;;;5052056;28;20129;-79
2022/03/12 10:52:56;;;;;;;4.38;3.10;;;;;;;;;;5017889;28;20033;-77
2022/03/12 10:55:33;;;;;;;3.00;2.50;;;;;;;;;;5052965;28;20067;-78
2022/03/12 10:58:02;;;;;;;3.15;2.40;;;;;;;;;;5052227;28;20465;-77
2022/03/12 11:00:32;;;;;;;3.80;2.50;;;;;;;;;;5051493;28;20107;-77
2022/03/12 11:03:01;;;;;;;3.13;2.30;;;;;;;;;;5051692;28;20048;-77
2022/03/12 11:05:34;;;;;;;3.72;2.60;;;;;;;;;;5034041;28;20068;-77
2022/03/12 11:08:18;;;;;;;2.72;2.28;;;;;;;;;;5051008;28;20049;-79
2022/03/12 11:11:06;;;;;;;2.25;2.05;;;;;;;;;;5064144;28;20044;-76
2022/03/12 11:13:40;;;;;;;2.15;1.98;;;;;;;;;;5069972;28;20108;-78
2022/03/12 11:16:17;;;;;;;2.30;2.10;;;;;;;;;;5071513;28;20127;-77
2022/03/12 11:18:54;;;;;;;1.70;1.60;;;;;;;;;;5071631;28;20040;-77
2022/03/12 11:21:41;;;;;;;3.33;1.65;;;;;;;;;;5071871;28;20040;-76
2022/03/12 11:24:16;;;;;;;2.22;1.98;;;;;;;;;;5071566;28;20083;-78
2022/03/12 11:26:50;;;;;;;2.15;1.95;;;;;;;;;;5054907;28;20126;-77
2022/03/12 11:29:18;;;;;;;2.30;2.10;;;;;;;;;;5047431;28;20409;-77
2022/03/12 11:31:45;;;;;;;2.35;2.15;;;;;;;;;;5042378;28;20032;-78
2022/03/12 11:34:19;;;;;;;2.17;2.05;;;;;;;;;;5061673;28;20044;-79
2022/03/12 11:36:59;;;;;;;1.88;1.58;;;;;;;;;;5053902;28;20041;-79
2022/03/12 11:39:27;;;;;;;2.17;1.63;;;;;;;;;;5053550;28;20144;-79
2022/03/12 11:42:11;;;;;;;2.00;1.80;;;;;;;;;;5050740;28;20447;-76
2022/03/12 11:44:40;;;;;;;2.28;1.88;;;;;;;;;;5063777;28;20136;-78
2022/03/12 11:47:08;;;;;;;2.38;1.95;;;;;;;;;;5055963;28;20045;-76
2022/03/12 11:49:36;;;;;;;1.98;1.88;;;;;;;;;;5091182;28;20027;-76
2022/03/12 11:52:04;;;;;;;2.28;2.08;;;;;;;;;;5070468;28;20028;-77
2022/03/12 11:54:34;;;;;;;1.80;1.70;;;;;;;;;;5076166;28;20021;-78
2022/03/12 11:57:01;;;;;;;2.50;2.30;;;;;;;;;;5061632;28;20064;-77
2022/03/12 11:59:28;;;;;;;2.15;1.95;;;;;;;;;;5076266;28;20063;-77
2022/03/12 12:02:16;;;;;;;1.67;1.58;;;;;;;;;;5062622;28;20025;-78
2022/03/12 12:04:44;;;;;;;4.22;1.90;;;;;;;;;;5056536;28;20037;-78
2022/03/12 12:07:12;;;;;;;1.90;1.80;;;;;;;;;;5092255;28;20040;-77
2022/03/12 12:09:40;;;;;;;2.10;1.92;;;;;;;;;;5082190;28;20047;-76
2022/03/12 12:12:11;;;;;;;4.53;1.88;;;;;;;;;;5064003;28;20024;-77
2022/03/12 12:14:39;;;;;;;1.80;1.67;;;;;;;;;;5085048;28;20051;-77
2022/03/12 12:17:06;;;;;;;1.95;1.85;;;;;;;;;;5088001;28;20025;-77
2022/03/12 12:19:34;;;;;;;4.40;1.58;;;;;;;;;;5076027;28;20041;-77
2022/03/12 12:22:02;;;;;;;2.40;1.92;;;;;;;;;;5077032;28;20104;-76
2022/03/12 12:24:31;;;;;;;3.75;1.80;;;;;;;;;;5102761;28;20077;-77
2022/03/12 12:26:59;;;;;;;1.70;1.60;;;;;;;;;;5087484;28;20037;-77
2022/03/12 12:29:41;;;;;;;2.53;1.67;;;;;;;;;;5091479;28;20036;-78
2022/03/12 12:32:13;;;;;;;1.85;1.75;;;;;;;;;;5097148;28;20072;-78
2022/03/12 12:34:59;;;;;;;1.48;1.35;;;;;;;;;;5089399;28;20108;-78
2022/03/12 12:37:45;;;;;;;1.52;1.42;;;;;;;;;;5061819;28;20556;-76
2022/03/12 12:40:35;;;;;;;2.97;1.70;;;;;;;;;;5053732;28;20037;-77
2022/03/12 12:43:09;;;;;;;2.90;1.70;;;;;;;;;;5052524;28;20147;-78
2022/03/12 12:45:57;;;;;;;1.70;1.60;;;;;;;;;;5047046;28;20052;-79
2022/03/12 12:48:29;;;;;;;3.72;1.73;;;;;;;;;;5052905;28;20045;-78
2022/03/12 12:51:08;;;;;;;3.42;1.73;;;;;;;;;;5056939;28;20043;-80
2022/03/12 12:53:37;;;;;;;1.90;1.60;;;;;;;;;;5058384;28;20142;-77
2022/03/12 12:56:21;;;;;;;2.10;1.70;;;;;;;;;;5038823;28;20039;-77
2022/03/12 12:58:53;;;;;;;1.92;1.83;;;;;;;;;;5055150;28;20035;-79
2022/03/12 13:01:22;;;;;;;2.83;1.90;;;;;;;;;;5041832;28;20051;-78
2022/03/12 13:03:51;;;;;;;1.75;1.65;;;;;;;;;;5053794;28;20045;-78
2022/03/12 13:06:40;;;;;;;1.90;1.80;;;;;;;;;;5066321;28;20032;-78
2022/03/12 13:09:10;;;;;;;2.28;2.05;;;;;;;;;;5070523;28;20044;-76
2022/03/12 13:11:57;;;;;;;2.00;1.80;;;;;;;;;;5060981;28;20037;-78
2022/03/12 13:14:26;;;;;;;1.88;1.77;;;;;;;;;;5039835;28;20053;-78
2022/03/12 13:16:58;;;;;;;1.88;1.77;;;;;;;;;;5058465;28;20048;-81
2022/03/12 13:19:28;;;;;;;2.42;1.70;;;;;;;;;;5042835;28;20041;-79
2022/03/12 13:22:15;;;;;;;2.55;1.88;;;;;;;;;;5044586;28;20064;-77
2022/03/12 13:24:44;;;;;;;1.80;1.65;;;;;;;;;;5051199;28;20486;-80
2022/03/12 13:27:16;;;;;;;2.13;1.80;;;;;;;;;;5050779;28;20052;-81
2022/03/12 13:29:44;;;;;;;2.30;1.88;;;;;;;;;;5047602;28;20053;-76
2022/03/12 13:32:23;;;;;;;2.42;2.03;;;;;;;;;;5057693;28;20056;-80
2022/03/12 13:34:52;;;;;;;1.90;1.70;;;;;;;;;;5072609;28;20041;-79
2022/03/12 13:37:19;;;;;;;2.13;1.85;;;;;;;;;;5055957;28;20033;-77
2022/03/12 13:39:47;;;;;;;1.85;1.60;;;;;;;;;;5080468;28;20066;-78
2022/03/12 13:42:16;;;;;;;2.00;1.90;;;;;;;;;;5067433;28;20044;-78
2022/03/12 13:44:45;;;;;;;2.13;1.80;;;;;;;;;;5038738;28;20044;-77
2022/03/12 13:47:17;;;;;;;1.98;1.70;;;;;;;;;;5067289;28;20045;-79
2022/03/12 13:49:44;;;;;;;2.70;2.30;;;;;;;;;;5053181;28;20063;-79
2022/03/12 13:52:17;;;;;;;1.77;1.67;;;;;;;;;;5052911;28;20044;-76
2022/03/12 13:54:45;;;;;;;1.92;1.83;;;;;;;;;;5052682;28;20110;-76
2022/03/12 13:57:12;;;;;;;1.90;1.60;;;;;;;;;;5034989;28;20051;-77
2022/03/12 13:59:40;;;;;;;2.92;2.00;;;;;;;;;;5062405;28;20048;-78
2022/03/12 14:02:14;;;;;;;2.03;1.92;;;;;;;;;;5086165;22;20066;-71
2022/03/12 14:04:46;;;;;;;3.40;2.00;;;;;;;;;;5060813;28;20048;-73
2022/03/12 14:07:18;;;;;;;2.88;2.00;;;;;;;;;;5049597;28;20418;-73
2022/03/12 14:09:46;;;;;;;2.30;2.05;;;;;;;;;;5049729;28;20041;-74
2022/03/12 14:12:19;;;;;;;2.35;2.10;;;;;;;;;;5063838;28;20041;-73
2022/03/12 14:14:48;;;;;;;5.60;2.08;;;;;;;;;;5044083;28;20091;-73
2022/03/12 14:17:16;;;;;;;1.95;1.85;;;;;;;;;;5062521;28;20040;-72
2022/03/12 14:19:44;;;;;;;2.00;1.90;;;;;;;;;;5048917;28;20083;-73
2022/03/12 14:22:12;;;;;;;1.90;1.80;;;;;;;;;;5048540;28;20116;-73
2022/03/12 14:24:40;;;;;;;2.00;1.90;;;;;;;;;;5046036;28;21919;-74
2022/03/12 14:27:11;;;;;;;1.75;1.65;;;;;;;;;;5047450;28;20054;-73
2022/03/12 14:29:40;;;;;;;1.77;1.67;;;;;;;;;;5047958;28;20457;-73
2022/03/12 14:32:07;;;;;;;3.05;2.17;;;;;;;;;;5056992;28;20203;-73
2022/03/12 14:34:35;;;;;;;4.95;2.28;;;;;;;;;;5048401;28;20069;-73
2022/03/12 14:37:04;;;;;;;2.47;2.15;;;;;;;;;;5048589;28;20131;-73
2022/03/12 14:39:32;;;;;;;4.00;2.55;;;;;;;;;;5049179;28;20076;-73
2022/03/12 14:42:01;;;;;;;3.50;2.17;;;;;;;;;;5050600;28;20136;-74
2022/03/12 14:44:30;;;;;;;1.80;1.70;;;;;;;;;;5052381;28;20045;-73
2022/03/12 14:46:58;;;;;;;4.13;2.53;;;;;;;;;;5049357;28;20151;-72
2022/03/12 14:49:26;;;;;;;2.00;1.90;;;;;;;;;;5046353;28;20060;-72
2022/03/12 14:51:54;;;;;;;1.90;1.80;;;;;;;;;;5049689;28;20374;-72
2022/03/12 14:54:23;;;;;;;2.45;2.22;;;;;;;;;;5050802;28;20495;-72
2022/03/12 14:56:51;;;;;;;2.25;2.15;;;;;;;;;;5059621;28;20044;-73